地図

経路データ

SID SEASON NUMBER BASIN SUBBASIN NAME ISO_TIME NATURE LAT LON WMO_WIND WMO_PRES WMO_AGENCY TRACK_TYPE DIST2LAND LANDFALL IFLAG USA_AGENCY USA_ATCF_ID USA_LAT USA_LON USA_RECORD USA_STATUS USA_WIND USA_PRES USA_SSHS USA_R34_NE USA_R34_SE USA_R34_SW USA_R34_NW USA_R50_NE USA_R50_SE USA_R50_SW USA_R50_NW USA_R64_NE USA_R64_SE USA_R64_SW USA_R64_NW USA_POCI USA_ROCI USA_RMW USA_EYE TOKYO_LAT TOKYO_LON TOKYO_GRADE TOKYO_WIND TOKYO_PRES TOKYO_R50_DIR TOKYO_R50_LONG TOKYO_R50_SHORT TOKYO_R30_DIR TOKYO_R30_LONG TOKYO_R30_SHORT TOKYO_LAND CMA_LAT CMA_LON CMA_CAT CMA_WIND CMA_PRES HKO_LAT HKO_LON HKO_CAT HKO_WIND HKO_PRES NEWDELHI_LAT NEWDELHI_LON NEWDELHI_GRADE NEWDELHI_WIND NEWDELHI_PRES NEWDELHI_CI NEWDELHI_DP NEWDELHI_POCI REUNION_LAT REUNION_LON REUNION_TYPE REUNION_WIND REUNION_PRES REUNION_TNUM REUNION_CI REUNION_RMW REUNION_R34_NE REUNION_R34_SE REUNION_R34_SW REUNION_R34_NW REUNION_R50_NE REUNION_R50_SE REUNION_R50_SW REUNION_R50_NW REUNION_R64_NE REUNION_R64_SE REUNION_R64_SW REUNION_R64_NW BOM_LAT BOM_LON BOM_TYPE BOM_WIND BOM_PRES BOM_TNUM BOM_CI BOM_RMW BOM_R34_NE BOM_R34_SE BOM_R34_SW BOM_R34_NW BOM_R50_NE BOM_R50_SE BOM_R50_SW BOM_R50_NW BOM_R64_NE BOM_R64_SE BOM_R64_SW BOM_R64_NW BOM_ROCI BOM_POCI BOM_EYE BOM_POS_METHOD BOM_PRES_METHOD NADI_LAT NADI_LON NADI_CAT NADI_WIND NADI_PRES WELLINGTON_LAT WELLINGTON_LON WELLINGTON_WIND WELLINGTON_PRES DS824_LAT DS824_LON DS824_STAGE DS824_WIND DS824_PRES TD9636_LAT TD9636_LON TD9636_STAGE TD9636_WIND TD9636_PRES TD9635_LAT TD9635_LON TD9635_WIND TD9635_PRES TD9635_ROCI NEUMANN_LAT NEUMANN_LON NEUMANN_CLASS NEUMANN_WIND NEUMANN_PRES MLC_LAT MLC_LON MLC_CLASS MLC_WIND MLC_PRES USA_GUST BOM_GUST BOM_GUST_PER REUNION_GUST REUNION_GUST_PER USA_SEAHGT USA_SEARAD_NE USA_SEARAD_SE USA_SEARAD_SW USA_SEARAD_NW STORM_SPEED STORM_DIR
1884081S10092 1884 11 SI WA NOT_NAMED 1884-03-21 06:00:00 NR -10.3000 91.8000 main 1242 1242 _____O________ -1 -10.3000 91.8000 99 9.90000 2 254
1884081S10092 1884 11 SI WA NOT_NAMED 1884-03-21 09:00:00 NR -10.3301 91.6964 main 1249 1249 _____P________ -1 -10.3301 91.6964 99 2 253
1884081S10092 1884 11 SI WA NOT_NAMED 1884-03-21 12:00:00 NR -10.3620 91.5871 main 1265 1265 _____P________ -1 -10.3620 91.5871 99 2 253
1884081S10092 1884 11 SI WA NOT_NAMED 1884-03-21 15:00:00 NR -10.3978 91.4667 main 1272 1272 _____P________ -1 -10.3978 91.4667 99 3 253
1884081S10092 1884 11 SI WA NOT_NAMED 1884-03-21 18:00:00 NR -10.4392 91.3295 main 1287 1287 _____P________ -1 -10.4392 91.3295 99 3 253
1884081S10092 1884 11 SI WA NOT_NAMED 1884-03-21 21:00:00 NR -10.4883 91.1698 main 1302 1302 _____P________ -1 -10.4883 91.1698 99 4 253
1884081S10092 1884 11 SI WA NOT_NAMED 1884-03-22 00:00:00 NR -10.5469 90.9821 main 1317 1317 _____P________ -1 -10.5469 90.9821 99 4 252
1884081S10092 1884 11 SI WA NOT_NAMED 1884-03-22 03:00:00 NR -10.6168 90.7607 main 1340 1340 _____P________ -1 -10.6168 90.7607 99 5 252
1884081S10092 1884 11 SI WA NOT_NAMED 1884-03-22 06:00:00 NR -10.7000 90.5000 main 1370 1370 _____O________ -1 -10.7000 90.5000 99 9.90000 6 252
1884081S10092 1884 11 SI WA NOT_NAMED 1884-03-22 09:00:00 NR -10.7975 90.1963 main 1401 1401 _____P________ -1 -10.7975 90.1963 99 7 252
1884081S10092 1884 11 SI MM NOT_NAMED 1884-03-22 12:00:00 NR -10.9075 89.8546 main 1432 1432 _____P________ -1 -10.9075 89.8546 99 7 252
1884081S10092 1884 11 SI MM NOT_NAMED 1884-03-22 15:00:00 NR -11.0278 89.4819 main 1471 1471 _____P________ -1 -11.0278 89.4819 99 8 252
1884081S10092 1884 11 SI MM NOT_NAMED 1884-03-22 18:00:00 NR -11.1559 89.0852 main 1518 1518 _____P________ -1 -11.1559 89.0852 99 8 252
1884081S10092 1884 11 SI MM NOT_NAMED 1884-03-22 21:00:00 NR -11.2894 88.6716 main 1557 1557 _____P________ -1 -11.2894 88.6716 99 9 252
1884081S10092 1884 11 SI MM NOT_NAMED 1884-03-23 00:00:00 NR -11.4261 88.2481 main 1605 1605 _____P________ -1 -11.4261 88.2481 99 9 252
1884081S10092 1884 11 SI MM NOT_NAMED 1884-03-23 03:00:00 NR -11.5637 87.8219 main 1652 1652 _____P________ -1 -11.5637 87.8219 99 9 252
1884081S10092 1884 11 SI MM NOT_NAMED 1884-03-23 06:00:00 NR -11.7000 87.4000 main 1693 1693 _____O________ -1 -11.7000 87.4000 99 9.90000 8 252
1884081S10092 1884 11 SI MM NOT_NAMED 1884-03-23 09:00:00 NR -11.8208 87.0103 main 1733 1733 _____P________ -1 -11.8208 87.0103 99 8 252
1884081S10092 1884 11 SI MM NOT_NAMED 1884-03-23 12:00:00 NR -11.9413 86.6204 main 1774 1774 _____P________ -1 -11.9413 86.6204 99 8 252
1884081S10092 1884 11 SI MM NOT_NAMED 1884-03-23 15:00:00 NR -12.0622 86.2307 main 1822 1822 _____P________ -1 -12.0622 86.2307 99 8 252
1884081S10092 1884 11 SI MM NOT_NAMED 1884-03-23 18:00:00 NR -12.1843 85.8417 main 1863 1863 _____P________ -1 -12.1843 85.8417 99 8 252
1884081S10092 1884 11 SI MM NOT_NAMED 1884-03-23 21:00:00 NR -12.3083 85.4537 main 1896 1896 _____P________ -1 -12.3083 85.4537 99 8 252
1884081S10092 1884 11 SI MM NOT_NAMED 1884-03-24 00:00:00 NR -12.4351 85.0672 main 1937 1937 _____P________ -1 -12.4351 85.0672 99 8 251
1884081S10092 1884 11 SI MM NOT_NAMED 1884-03-24 03:00:00 NR -12.5654 84.6825 main 1985 1985 _____P________ -1 -12.5654 84.6825 99 8 251
1884081S10092 1884 11 SI MM NOT_NAMED 1884-03-24 06:00:00 NR -12.7000 84.3000 main 2027 2027 _____O________ -1 -12.7000 84.3000 99 9.90000 8 250
1884081S10092 1884 11 SI MM NOT_NAMED 1884-03-24 09:00:00 NR -12.8326 83.9219 main 2068 2068 _____P________ -1 -12.8326 83.9219 99 8 250
1884081S10092 1884 11 SI MM NOT_NAMED 1884-03-24 12:00:00 NR -12.9686 83.5461 main 2117 2117 _____P________ -1 -12.9686 83.5461 99 8 249
1884081S10092 1884 11 SI MM NOT_NAMED 1884-03-24 15:00:00 NR -13.1087 83.1720 main 2148 2146 _____P________ -1 -13.1087 83.1720 99 8 249
1884081S10092 1884 11 SI MM NOT_NAMED 1884-03-24 18:00:00 NR -13.2539 82.7988 main 2164 2162 _____P________ -1 -13.2539 82.7988 99 8 248
1884081S10092 1884 11 SI MM NOT_NAMED 1884-03-24 21:00:00 NR -13.4048 82.4257 main 2171 2170 _____P________ -1 -13.4048 82.4257 99 8 247
1884081S10092 1884 11 SI MM NOT_NAMED 1884-03-25 00:00:00 NR -13.5623 82.0521 main 2190 2189 _____P________ -1 -13.5623 82.0521 99 8 246
1884081S10092 1884 11 SI MM NOT_NAMED 1884-03-25 03:00:00 NR -13.7271 81.6771 main 2199 2198 _____P________ -1 -13.7271 81.6771 99 8 245
1884081S10092 1884 11 SI MM NOT_NAMED 1884-03-25 06:00:00 NR -13.9000 81.3000 main 2219 2219 _____O________ -1 -13.9000 81.3000 99 9.90000 9 244
1884081S10092 1884 11 SI MM NOT_NAMED 1884-03-25 09:00:00 NR -14.1010 80.8760 main 2240 2240 _____P________ -1 -14.1010 80.8760 99 9 244
1884081S10092 1884 11 SI MM NOT_NAMED 1884-03-25 12:00:00 NR -14.3128 80.4446 main 2263 2263 _____P________ -1 -14.3128 80.4446 99 9 243
1884081S10092 1884 11 SI MM NOT_NAMED 1884-03-25 15:00:00 NR -14.5299 80.0147 main 2286 2286 _____P________ -1 -14.5299 80.0147 99 9 242
1884081S10092 1884 11 SI MM NOT_NAMED 1884-03-25 18:00:00 NR -14.7466 79.5951 main 2310 2310 _____P________ -1 -14.7466 79.5951 99 9 242
1884081S10092 1884 11 SI MM NOT_NAMED 1884-03-25 21:00:00 NR -14.9574 79.1948 main 2341 2297 _____P________ -1 -14.9574 79.1948 99 9 241
1884081S10092 1884 11 SI MM NOT_NAMED 1884-03-26 00:00:00 NR -15.1568 78.8227 main 2294 2260 _____P________ -1 -15.1568 78.8227 99 8 241
1884081S10092 1884 11 SI MM NOT_NAMED 1884-03-26 03:00:00 NR -15.3395 78.4881 main 2260 2222 _____P________ -1 -15.3395 78.4881 99 7 240
1884081S10092 1884 11 SI MM NOT_NAMED 1884-03-26 06:00:00 NR -15.5000 78.2000 reunion main 2222 2199 _____O________ -1 -15.5000 78.2000 99 9.90000 6 240
1884081S10092 1884 11 SI MM NOT_NAMED 1884-03-26 09:00:00 NR -15.6345 77.9650 main 2199 2175 _____P________ -1 -15.6345 77.9650 99 5 239
1884081S10092 1884 11 SI MM NOT_NAMED 1884-03-26 12:00:00 NR -15.7451 77.7789 main 2175 2151 _____P________ -1 -15.7451 77.7789 99 4 238
1884081S10092 1884 11 SI MM NOT_NAMED 1884-03-26 15:00:00 NR -15.8353 77.6348 main 2151 2138 _____P________ -1 -15.8353 77.6348 99 3 236
1884081S10092 1884 11 SI MM NOT_NAMED 1884-03-26 18:00:00 NR -15.9085 77.5257 main 2138 2124 _____P________ -1 -15.9085 77.5257 99 2 234
1884081S10092 1884 11 SI MM NOT_NAMED 1884-03-26 21:00:00 NR -15.9682 77.4447 main 2124 2124 _____P________ -1 -15.9682 77.4447 99 2 232
1884081S10092 1884 11 SI MM NOT_NAMED 1884-03-27 00:00:00 NR -16.0177 77.3848 main 2124 2111 _____P________ -1 -16.0177 77.3848 99 1 228
1884081S10092 1884 11 SI MM NOT_NAMED 1884-03-27 03:00:00 NR -16.0606 77.3389 main 2111 2111 _____P________ -1 -16.0606 77.3389 99 1 223
1884081S10092 1884 11 SI MM NOT_NAMED 1884-03-27 06:00:00 NR -16.1000 77.3000 reunion main 2111 _____O________ -1 -16.1000 77.3000 99 9.90000 1 225

IBTrACS Databaseについて

本データベースは、米国NOAAが公開する1842年以降の世界の熱帯低気圧のベストトラックデータアーカイブInternational Best Track Archive for Climate Stewardship (IBTrACS)を、ウェブで閲覧しやすい形式に変換したものです。

最終更新日:2021-10-08